Time;durP1;ratioP1;P1;durP2;ratioP2;P2;SDS_P1;SDS_P2;PMS_P1;PMS_P2;Temp;Humidity;BMP_temperature;BMP_pressure;BME280_temperature;BME280_humidity;BME280_pressure;Samples;Min_cycle;Max_cycle;Signal;HPM_P1;HPM_P2
2021/08/13 00:00:25;;;;;;;8.48;2.65;;;;;;;18.61;64.17;100215.20;1753796;82;21328;-83
2021/08/13 00:03:30;;;;;;;12.78;3.10;;;;;;;18.59;64.18;100208.22;1753942;82;21765;-82
2021/08/13 00:06:40;;;;;;;8.48;3.20;;;;;;;18.57;64.22;100208.97;1752667;81;21379;-82
2021/08/13 00:09:47;;;;;;;7.72;3.30;;;;;;;18.55;64.31;100208.37;1752765;82;21225;-83
2021/08/13 00:12:53;;;;;;;4.97;3.00;;;;;;;18.53;64.44;100223.80;1752572;82;21189;-83
2021/08/13 00:15:59;;;;;;;7.78;3.00;;;;;;;18.50;64.57;100218.75;1753955;82;21198;-82
2021/08/13 00:19:05;;;;;;;7.87;3.17;;;;;;;18.48;64.77;100231.13;1752396;82;21206;-83
2021/08/13 00:22:11;;;;;;;4.45;2.92;;;;;;;18.44;64.87;100227.11;1752452;82;21221;-83
2021/08/13 00:25:15;;;;;;;4.65;2.70;;;;;;;18.39;65.04;100225.88;1753499;82;21222;-83
2021/08/13 00:28:21;;;;;;;4.20;2.83;;;;;;;18.35;65.13;100227.44;1752493;82;21312;-82
2021/08/13 00:31:26;;;;;;;7.67;3.30;;;;;;;18.32;65.27;100222.89;1752614;82;21356;-83
2021/08/13 00:34:32;;;;;;;6.85;3.20;;;;;;;18.31;65.38;100226.74;1753073;82;21835;-82
2021/08/13 00:37:40;;;;;;;5.92;3.12;;;;;;;18.29;65.52;100230.26;1752488;82;21779;-82
2021/08/13 00:40:47;;;;;;;5.72;3.10;;;;;;;18.25;65.75;100227.63;1751100;82;21343;-82
2021/08/13 00:43:52;;;;;;;8.35;2.90;;;;;;;18.20;65.94;100229.70;1754141;82;21352;-83
2021/08/13 00:46:59;;;;;;;3.33;2.70;;;;;;;18.17;66.16;100241.80;1753955;82;21331;-83
2021/08/13 00:50:06;;;;;;;4.78;2.62;;;;;;;18.11;66.22;100234.71;1751606;82;21315;-83
2021/08/13 00:53:14;;;;;;;6.95;3.05;;;;;;;18.10;66.37;100239.91;1752905;82;21773;-81
2021/08/13 00:56:20;;;;;;;7.10;3.12;;;;;;;18.08;66.50;100240.69;1753988;82;21323;-83
2021/08/13 00:59:42;;;;;;;3.67;2.85;;;;;;;18.05;66.70;100248.59;1754180;82;21304;-83
2021/08/13 01:02:50;;;;;;;5.50;2.77;;;;;;;18.02;66.82;100243.50;1752475;82;21371;-83
2021/08/13 01:06:00;;;;;;;8.78;3.15;;;;;;;18.00;66.98;100260.34;1754597;82;21305;-83
2021/08/13 01:09:05;;;;;;;6.60;3.00;;;;;;;17.97;67.02;100246.10;1754005;82;22657;-83
2021/08/13 01:12:33;;;;;;;6.58;2.85;;;;;;;17.96;67.17;100250.79;1752666;82;21367;-82
2021/08/13 01:15:40;;;;;;;4.95;3.17;;;;;;;17.94;67.34;100260.41;1754043;82;21912;-83
2021/08/13 01:18:48;;;;;;;4.83;3.22;;;;;;;17.88;67.56;100262.16;1753998;82;21825;-82
2021/08/13 01:22:10;;;;;;;5.97;3.37;;;;;;;17.83;67.80;100263.34;1753570;82;21710;-83
2021/08/13 01:25:17;;;;;;;6.97;3.65;;;;;;;17.78;68.10;100260.41;1752622;82;21221;-82
2021/08/13 01:28:53;;;;;;;7.53;3.08;;;;;;;17.72;68.44;100262.12;1752671;82;21253;-83
2021/08/13 01:32:22;;;;;;;5.37;3.42;;;;;;;17.66;68.82;100258.05;1754123;82;21849;-83
2021/08/13 01:35:34;;;;;;;;;;;;;;;17.56;69.21;100262.15;1755321;82;21681;-83
2021/08/13 01:38:40;;;;;;;5.72;3.42;;;;;;;17.49;69.57;100266.02;1754294;82;20240;-83
2021/08/13 01:41:46;;;;;;;6.35;3.47;;;;;;;17.41;69.95;100251.06;1731261;82;21210;-83
2021/08/13 01:44:54;;;;;;;10.35;3.75;;;;;;;17.37;70.21;100252.91;1754230;82;21330;-83
2021/08/13 01:48:02;;;;;;;6.03;3.15;;;;;;;17.33;70.36;100257.72;1754200;82;21193;-82
2021/08/13 01:51:14;;;;;;;7.80;3.52;;;;;;;17.29;70.53;100260.61;1752554;82;21198;-82
2021/08/13 01:54:16;;;;;;;4.25;3.08;;;;;;;17.27;70.61;100262.77;1753810;82;21359;-83
2021/08/13 01:57:22;;;;;;;11.53;3.75;;;;;;;17.24;70.76;100255.75;1754054;82;21355;-84
2021/08/13 02:00:28;;;;;;;5.10;3.80;;;;;;;17.22;70.84;100261.17;1753861;82;21968;-83
2021/08/13 02:03:34;;;;;;;6.85;3.42;;;;;;;17.21;71.01;100261.70;1753541;82;21383;-83
2021/08/13 02:06:40;;;;;;;4.87;3.35;;;;;;;17.19;71.10;100263.86;1754082;82;21307;-82
2021/08/13 02:09:47;;;;;;;6.87;4.08;;;;;;;17.17;71.20;100268.74;1752604;82;21201;-83
2021/08/13 02:12:52;;;;;;;10.18;4.28;;;;;;;17.14;71.30;100263.67;1753993;82;21760;-83
2021/08/13 02:16:06;;;;;;;4.15;3.20;;;;;;;17.09;71.40;100272.62;1754176;82;21312;-83
2021/08/13 02:19:19;;;;;;;6.17;4.05;;;;;;;17.05;71.54;100272.75;1752632;82;21189;-83
2021/08/13 02:22:25;;;;;;;4.85;3.35;;;;;;;17.04;71.68;100277.97;1752639;82;21741;-82
2021/08/13 02:25:33;;;;;;;8.03;3.90;;;;;;;17.01;71.73;100282.54;1752595;82;21253;-82
2021/08/13 02:28:38;;;;;;;6.80;3.83;;;;;;;17.01;71.78;100285.30;1754096;82;21871;-83
2021/08/13 02:31:46;;;;;;;7.47;3.33;;;;;;;16.99;71.85;100286.06;1752254;82;21201;-83
2021/08/13 02:34:53;;;;;;;6.25;3.40;;;;;;;16.95;71.93;100293.09;1752571;82;21190;-83
2021/08/13 02:38:17;;;;;;;5.67;3.42;;;;;;;16.96;71.98;100296.16;1752656;82;21265;-83
2021/08/13 02:41:23;;;;;;;10.25;4.92;;;;;;;16.95;72.01;100300.53;1753753;82;21335;-83
2021/08/13 02:44:30;;;;;;;23.07;8.08;;;;;;;16.96;72.05;100298.08;1727366;82;21732;-82
2021/08/13 02:47:36;;;;;;;25.35;8.95;;;;;;;16.97;71.98;100308.06;1717187;83;21193;-83
2021/08/13 02:50:42;;;;;;;23.00;7.25;;;;;;;16.97;72.00;100304.77;1717146;83;21320;-83
2021/08/13 02:53:48;;;;;;;16.42;5.75;;;;;;;16.99;71.99;100307.33;1698929;83;21244;-83
2021/08/13 02:56:53;;;;;;;7.70;4.87;;;;;;;16.99;71.98;100306.79;1716647;83;21972;-82
2021/08/13 03:00:01;;;;;;;14.70;4.90;;;;;;;16.99;72.06;100308.17;1717304;83;21303;-83
2021/08/13 03:03:06;;;;;;;8.48;4.62;;;;;;;16.99;72.13;100312.85;1698979;83;21188;-80
2021/08/13 03:06:12;;;;;;;10.03;4.10;;;;;;;16.99;72.12;100310.94;1717601;83;21343;-84
2021/08/13 03:09:19;;;;;;;7.75;3.60;;;;;;;17.04;71.94;100314.42;1717179;83;21360;-82
2021/08/13 03:12:24;;;;;;;7.30;4.25;;;;;;;17.09;71.78;100314.61;1715498;83;21248;-82
2021/08/13 03:15:30;;;;;;;6.28;3.42;;;;;;;17.17;71.63;100322.64;1716190;83;21831;-83
2021/08/13 03:18:36;;;;;;;7.50;3.65;;;;;;;17.24;71.45;100317.09;1717016;83;21239;-82
2021/08/13 03:21:42;;;;;;;5.95;4.35;;;;;;;17.32;71.22;100316.86;1715589;83;21255;-83
2021/08/13 03:24:48;;;;;;;13.43;5.65;;;;;;;17.37;70.98;100322.03;1715837;83;21818;-83
2021/08/13 03:27:56;;;;;;;14.43;4.87;;;;;;;17.43;70.80;100321.67;1716195;83;21275;-83
2021/08/13 03:31:02;;;;;;;14.25;5.70;;;;;;;17.49;70.73;100317.17;1717226;83;21838;-82
2021/08/13 03:34:09;;;;;;;11.35;5.12;;;;;;;17.52;70.47;100325.88;1716394;82;21189;-83
2021/08/13 03:37:14;;;;;;;18.00;7.08;;;;;;;17.57;70.35;100324.67;1717281;83;21185;-82
2021/08/13 03:40:20;;;;;;;22.75;6.62;;;;;;;17.63;70.20;100324.31;1715524;83;21280;-83
2021/08/13 03:43:26;;;;;;;13.88;6.62;;;;;;;17.73;69.82;100327.47;1715957;83;21219;-84
2021/08/13 03:46:30;;;;;;;15.38;7.03;;;;;;;17.93;69.31;100332.89;1696191;84;21304;-83
2021/08/13 03:49:37;;;;;;;10.72;4.83;;;;;;;18.18;68.57;100325.98;1695866;84;21820;-83
2021/08/13 03:52:43;;;;;;;8.68;4.97;;;;;;;18.38;67.75;100326.64;1697162;84;21214;-82
2021/08/13 03:55:49;;;;;;;16.23;5.80;;;;;;;18.47;67.32;100331.36;1695214;84;21356;-82
2021/08/13 03:58:57;;;;;;;18.87;4.60;;;;;;;18.56;67.10;100331.92;1695917;84;21320;-84
2021/08/13 04:02:02;;;;;;;11.95;4.85;;;;;;;18.64;66.42;100333.02;1694598;84;21269;-84
2021/08/13 04:05:07;;;;;;;8.83;4.78;;;;;;;18.65;66.39;100328.63;1695824;84;21320;-84
2021/08/13 04:08:16;;;;;;;11.57;5.15;;;;;;;18.62;66.36;100323.53;1694776;84;21225;-84
2021/08/13 04:11:22;;;;;;;11.85;4.92;;;;;;;18.64;66.47;100335.79;1696028;84;21270;-84
2021/08/13 04:14:29;;;;;;;8.53;4.85;;;;;;;18.74;66.33;100334.75;1696278;84;21320;-84
2021/08/13 04:17:35;;;;;;;7.58;4.92;;;;;;;18.88;65.95;100347.93;1696103;84;21772;-84
2021/08/13 04:20:43;;;;;;;15.30;5.25;;;;;;;18.96;65.85;100343.48;1694658;84;21189;-83
2021/08/13 04:23:51;;;;;;;13.08;5.42;;;;;;;19.06;65.62;100355.41;1696206;84;21538;-83
2021/08/13 04:26:56;;;;;;;8.33;4.85;;;;;;;19.12;65.56;100347.00;1696122;84;21289;-84
2021/08/13 04:30:01;;;;;;;10.23;4.53;;;;;;;19.15;65.52;100355.41;1696113;84;22542;-84
2021/08/13 04:33:09;;;;;;;13.83;4.55;;;;;;;19.18;65.35;100349.92;1694979;84;21697;-83
2021/08/13 04:36:16;;;;;;;11.43;5.00;;;;;;;19.20;65.34;100358.87;1695001;84;21292;-84
2021/08/13 04:39:23;;;;;;;9.30;4.97;;;;;;;19.24;65.11;100354.53;1696382;84;21341;-84
2021/08/13 04:42:29;;;;;;;10.78;4.70;;;;;;;19.32;65.15;100349.53;1694796;84;21233;-83
2021/08/13 04:45:35;;;;;;;10.15;4.75;;;;;;;19.47;64.95;100356.05;1702367;82;21935;-83
2021/08/13 04:48:41;;;;;;;8.48;4.45;;;;;;;19.64;64.58;100354.91;1740221;82;21386;-84
2021/08/13 04:51:48;;;;;;;15.60;5.12;;;;;;;19.83;64.11;100358.48;1739897;82;21908;-83
2021/08/13 04:54:54;;;;;;;13.43;4.22;;;;;;;20.04;63.71;100373.23;1738583;82;21205;-83
2021/08/13 04:57:59;;;;;;;7.78;4.35;;;;;;;20.24;63.40;100372.91;1740018;82;21356;-84
2021/08/13 05:01:05;;;;;;;10.45;4.62;;;;;;;20.42;62.90;100372.82;1739360;82;22618;-83
2021/08/13 05:04:12;;;;;;;14.47;4.80;;;;;;;20.59;62.70;100372.13;1677061;85;21896;-84
2021/08/13 05:07:18;;;;;;;8.68;4.80;;;;;;;20.79;62.61;100371.22;1663480;86;21296;-83
2021/08/13 05:10:24;;;;;;;9.83;4.55;;;;;;;20.99;61.35;100380.59;1678680;85;21299;-84
2021/08/13 05:13:30;;;;;;;10.58;4.65;;;;;;;21.22;61.39;100373.28;1690994;85;21356;-83
2021/08/13 05:16:37;;;;;;;12.85;4.47;;;;;;;21.50;59.53;100378.96;1690743;85;21192;-86
2021/08/13 05:19:44;;;;;;;12.43;4.33;;;;;;;21.77;59.11;100375.03;1703838;83;21190;-84
2021/08/13 05:22:49;;;;;;;9.55;4.08;;;;;;;22.05;58.01;100382.52;1705291;84;21311;-84
2021/08/13 05:25:55;;;;;;;10.30;4.70;;;;;;;22.27;56.67;100374.88;1704924;84;21383;-84
2021/08/13 05:29:04;;;;;;;12.88;4.47;;;;;;;22.40;56.11;100385.70;1689134;85;21197;-84
2021/08/13 05:32:09;;;;;;;12.73;4.83;;;;;;;22.48;55.42;100376.90;1687327;85;21228;-84
2021/08/13 05:35:16;;;;;;;9.50;4.65;;;;;;;22.57;56.22;100382.34;1704402;84;21181;-81
2021/08/13 05:38:23;;;;;;;8.73;3.87;;;;;;;22.74;55.39;100388.48;1704536;84;21252;-83
2021/08/13 05:41:29;;;;;;;6.60;3.98;;;;;;;22.76;54.67;100386.27;1704367;84;21205;-83
2021/08/13 05:44:37;;;;;;;12.82;4.10;;;;;;;22.68;54.47;100387.56;1708335;83;21227;-82
2021/08/13 05:47:43;;;;;;;12.37;4.65;;;;;;;22.60;54.42;100386.59;1696839;83;21617;-83
2021/08/13 05:50:50;;;;;;;11.50;4.33;;;;;;;22.57;55.49;100380.95;1689070;83;21358;-81
2021/08/13 05:53:57;;;;;;;11.83;4.10;;;;;;;22.60;55.26;100383.25;1721451;82;21613;-82
2021/08/13 05:57:05;;;;;;;12.63;3.92;;;;;;;22.69;55.84;100383.67;1672845;85;21808;-82
2021/08/13 06:00:14;;;;;;;6.75;3.55;;;;;;;22.86;55.15;100382.23;1718317;83;21289;-83
2021/08/13 06:03:22;;;;;;;8.35;3.90;;;;;;;23.00;54.27;100382.76;1718236;83;21285;-82
2021/08/13 06:06:28;;;;;;;15.95;4.58;;;;;;;23.05;53.65;100394.83;1714170;83;21240;-82
2021/08/13 06:09:33;;;;;;;6.05;3.45;;;;;;;23.09;54.06;100387.64;1735432;82;21288;-81
2021/08/13 06:12:38;;;;;;;8.00;3.58;;;;;;;23.11;53.35;100383.22;1705076;84;21665;-84
2021/08/13 06:15:44;;;;;;;8.63;3.55;;;;;;;23.13;53.32;100388.81;1712624;82;21656;-84
2021/08/13 06:18:51;;;;;;;13.40;3.67;;;;;;;23.23;54.08;100392.85;1717891;83;21153;-82
2021/08/13 06:21:58;;;;;;;16.12;3.83;;;;;;;23.29;52.97;100387.62;1699219;83;21196;-82
2021/08/13 06:25:04;;;;;;;14.90;3.95;;;;;;;23.32;52.59;100394.09;1726176;82;21311;-84
2021/08/13 06:28:11;;;;;;;6.45;3.12;;;;;;;23.36;53.23;100386.90;1686747;85;21308;-80
2021/08/13 06:31:17;;;;;;;7.83;3.25;;;;;;;23.38;51.73;100391.66;1732302;81;21328;-82
2021/08/13 06:34:24;;;;;;;9.20;4.05;;;;;;;23.37;51.55;100392.21;1747554;81;21923;-82
2021/08/13 06:37:28;;;;;;;6.30;3.45;;;;;;;23.38;52.22;100381.89;1723014;81;22000;-81
2021/08/13 06:40:33;;;;;;;9.33;3.30;;;;;;;23.40;52.14;100393.09;1751007;81;21288;-83
2021/08/13 06:43:42;;;;;;;9.80;3.05;;;;;;;23.43;51.57;100387.02;1752745;81;21311;-82
2021/08/13 06:46:46;;;;;;;11.57;3.80;;;;;;;23.46;52.52;100392.61;1746750;81;22240;-83
2021/08/13 06:49:51;;;;;;;6.65;3.27;;;;;;;23.58;53.03;100387.75;1768244;80;21602;-83
2021/08/13 06:52:57;;;;;;;8.15;3.90;;;;;;;23.71;51.10;100396.30;1746319;82;21181;-82
2021/08/13 06:56:03;;;;;;;13.88;4.17;;;;;;;23.75;49.71;100389.64;1754291;80;21232;-82
2021/08/13 06:59:08;;;;;;;14.80;6.67;;;;;;;23.83;49.52;100396.16;1746484;80;21161;-80
2021/08/13 07:02:14;;;;;;;15.58;5.40;;;;;;;23.89;48.44;100405.72;1765141;80;21302;-81
2021/08/13 07:05:20;;;;;;;17.02;5.40;;;;;;;23.98;48.14;100410.30;1756995;80;21742;-83
2021/08/13 07:08:26;;;;;;;12.30;5.15;;;;;;;24.03;47.80;100408.95;1753504;80;21283;-83
2021/08/13 07:11:31;;;;;;;19.37;8.23;;;;;;;24.11;48.22;100400.11;1711875;83;21245;-84
2021/08/13 07:14:37;;;;;;;13.78;8.58;;;;;;;24.23;48.97;100396.61;1689198;83;21319;-82
2021/08/13 07:17:42;;;;;;;27.90;11.97;;;;;;;24.27;47.64;100407.23;1722491;82;22223;-80
2021/08/13 07:20:50;;;;;;;19.75;9.88;;;;;;;24.33;48.72;100410.39;1718831;83;21256;-81
2021/08/13 07:23:56;;;;;;;26.73;10.85;;;;;;;24.36;48.85;100399.53;1719005;81;21189;-80
2021/08/13 07:27:02;;;;;;;14.83;6.62;;;;;;;24.33;47.89;100416.82;1717296;82;21269;-81
2021/08/13 07:30:08;;;;;;;18.20;7.28;;;;;;;24.27;48.58;100405.84;1719351;81;21259;-81
2021/08/13 07:33:14;;;;;;;11.65;5.92;;;;;;;24.27;47.52;100422.05;1691753;83;21384;-82
2021/08/13 07:36:25;;;;;;;14.40;7.45;;;;;;;24.28;47.67;100408.91;1688403;83;21379;-83
2021/08/13 07:39:28;;;;;;;17.85;8.05;;;;;;;24.29;47.76;100414.27;1742077;81;21311;-83
2021/08/13 07:42:36;;;;;;;20.08;8.88;;;;;;;24.23;46.76;100414.77;1747084;81;21301;-83
2021/08/13 07:45:42;;;;;;;14.20;6.62;;;;;;;24.23;47.62;100420.92;1741920;81;21288;-81
2021/08/13 07:48:47;;;;;;;15.23;6.42;;;;;;;24.31;47.76;100427.97;1731307;82;21303;-83
2021/08/13 07:51:53;;;;;;;13.25;6.28;;;;;;;24.43;48.30;100433.72;1733350;82;21279;-81
2021/08/13 07:54:59;;;;;;;14.63;7.62;;;;;;;24.45;47.53;100425.06;1739700;81;21314;-82
2021/08/13 07:58:04;;;;;;;15.48;8.20;;;;;;;24.45;47.16;100430.65;1720325;82;21285;-80
2021/08/13 08:01:10;;;;;;;16.87;8.03;;;;;;;24.42;46.68;100434.83;1724329;81;21326;-81
2021/08/13 08:04:17;;;;;;;28.38;8.60;;;;;;;24.45;47.36;100430.65;1677597;83;21597;-80
2021/08/13 08:07:22;;;;;;;12.07;6.87;;;;;;;24.54;48.10;100432.41;1684823;83;21277;-83
2021/08/13 08:10:27;;;;;;;13.75;8.00;;;;;;;24.56;47.03;100418.47;1723185;82;21172;-81
2021/08/13 08:13:33;;;;;;;13.25;5.42;;;;;;;24.49;47.16;100427.61;1710336;82;21756;-82
2021/08/13 08:16:38;;;;;;;8.93;5.50;;;;;;;24.38;47.61;100434.23;1703543;82;21212;-80
2021/08/13 08:19:43;;;;;;;12.88;6.47;;;;;;;24.41;47.99;100428.09;1712165;82;21800;-86
2021/08/13 08:22:48;;;;;;;13.25;5.90;;;;;;;24.48;46.87;100416.98;1710846;82;21231;-83
2021/08/13 08:25:53;;;;;;;14.18;5.70;;;;;;;24.57;46.75;100428.53;1708870;82;21346;-82
2021/08/13 08:28:57;;;;;;;11.78;5.30;;;;;;;24.60;45.80;100421.55;1683760;83;21307;-81
2021/08/13 08:32:04;;;;;;;12.43;5.87;;;;;;;24.59;45.49;100424.91;1723936;82;21358;-83
2021/08/13 08:35:09;;;;;;;10.70;4.90;;;;;;;24.60;45.54;100423.79;1682132;83;21328;-82
2021/08/13 08:38:13;;;;;;;25.68;10.95;;;;;;;24.65;45.32;100416.00;1715707;82;21378;-81
2021/08/13 08:41:18;;;;;;;13.85;4.80;;;;;;;24.76;45.30;100418.34;1684006;83;21383;-80
2021/08/13 08:44:25;;;;;;;10.68;4.30;;;;;;;24.92;43.96;100412.58;1687788;83;21371;-82
2021/08/13 08:47:30;;;;;;;8.98;3.85;;;;;;;24.97;42.94;100414.57;1687117;83;21432;-82
2021/08/13 08:50:37;;;;;;;6.37;4.00;;;;;;;24.94;42.82;100422.97;1669872;83;21285;-82
2021/08/13 08:53:43;;;;;;;13.38;5.60;;;;;;;24.97;42.90;100422.97;1744465;81;21557;-83
2021/08/13 08:56:48;;;;;;;12.35;5.05;;;;;;;24.98;42.16;100424.12;1726552;81;21547;-82
2021/08/13 08:59:54;;;;;;;10.45;5.12;;;;;;;25.00;42.97;100408.45;1678540;83;21846;-80
2021/08/13 09:03:00;;;;;;;6.92;3.87;;;;;;;25.05;43.32;100415.47;1695973;83;21307;-81
2021/08/13 09:05:59;;;;;;;8.73;3.60;;;;;;;25.17;41.98;100420.36;1704775;82;21240;-82
2021/08/13 09:09:04;;;;;;;7.83;3.80;;;;;;;25.22;41.73;100406.95;1742042;81;21312;-81
2021/08/13 09:12:10;;;;;;;6.20;3.95;;;;;;;25.24;41.44;100421.50;1724627;81;21160;-81
2021/08/13 09:15:37;;;;;;;8.70;3.90;;;;;;;25.19;41.72;100408.88;1716885;82;21293;-82
2021/08/13 09:18:46;;;;;;;12.07;4.58;;;;;;;25.09;39.92;100418.06;1723764;82;21403;-82
2021/08/13 09:21:49;;;;;;;10.78;4.47;;;;;;;25.00;41.18;100423.84;1734875;81;21297;-81
2021/08/13 09:24:58;;;;;;;11.25;4.28;;;;;;;24.96;41.13;100426.88;1731677;81;21331;-82
2021/08/13 09:28:22;;;;;;;9.65;4.22;;;;;;;24.97;40.36;100415.41;1733813;81;21296;-81
2021/08/13 09:31:34;;;;;;;9.95;3.95;;;;;;;24.93;40.39;100414.81;1721477;83;21766;-81
2021/08/13 09:34:41;;;;;;;9.15;3.37;;;;;;;24.93;39.58;100431.61;1695665;83;21334;-82
2021/08/13 09:37:46;;;;;;;6.87;3.65;;;;;;;24.93;39.32;100424.05;1724353;82;21285;-80
2021/08/13 09:40:52;;;;;;;6.33;3.67;;;;;;;25.02;39.38;100428.59;1728385;82;21281;-81
2021/08/13 09:44:08;;;;;;;11.60;3.55;;;;;;;25.14;39.93;100427.88;1702720;83;21312;-82
2021/08/13 09:47:20;;;;;;;5.33;3.67;;;;;;;25.24;39.44;100433.54;1725614;83;21350;-81
2021/08/13 09:50:26;;;;;;;7.60;4.17;;;;;;;25.43;39.36;100448.48;1699824;83;21245;-82
2021/08/13 09:53:31;;;;;;;11.00;3.77;;;;;;;25.54;39.74;100436.22;1671358;83;21351;-81
2021/08/13 09:56:38;;;;;;;7.05;4.20;;;;;;;25.58;38.94;100431.76;1717337;82;21298;-82
2021/08/13 09:59:43;;;;;;;5.78;3.35;;;;;;;25.58;38.88;100435.12;1707773;82;21344;-82
2021/08/13 10:02:51;;;;;;;8.33;3.90;;;;;;;25.55;38.95;100442.12;1684283;83;21371;-81
2021/08/13 10:06:11;;;;;;;10.78;3.92;;;;;;;25.61;38.92;100438.78;1690791;83;21952;-82
2021/08/13 10:09:35;;;;;;;11.63;3.83;;;;;;;25.66;39.12;100443.84;1720224;81;21155;-82
2021/08/13 10:12:53;;;;;;;12.82;3.90;;;;;;;25.69;39.22;100446.11;1722020;83;21125;-82
2021/08/13 10:16:05;;;;;;;6.83;3.70;;;;;;;25.74;40.42;100432.12;1714432;83;21293;-82
2021/08/13 10:19:13;;;;;;;10.78;3.85;;;;;;;25.91;40.17;100443.69;1694159;83;21776;-82
2021/08/13 10:22:21;;;;;;;6.78;3.95;;;;;;;25.99;38.47;100438.97;1683581;83;21257;-81
2021/08/13 10:25:27;;;;;;;10.32;4.58;;;;;;;25.92;38.38;100420.16;1725745;83;21376;-82
2021/08/13 10:28:34;;;;;;;7.33;4.30;;;;;;;25.83;39.43;100416.20;1708306;83;21185;-81
2021/08/13 10:31:41;;;;;;;10.35;3.87;;;;;;;25.76;39.50;100426.84;1689652;83;21824;-81
2021/08/13 10:34:46;;;;;;;11.88;3.67;;;;;;;25.71;40.47;100420.06;1724022;82;21224;-84
2021/08/13 10:37:53;;;;;;;5.62;3.30;;;;;;;25.74;40.19;100429.33;1724192;82;21815;-82
2021/08/13 10:40:59;;;;;;;14.28;3.67;;;;;;;25.80;38.90;100433.58;1715969;81;21300;-81
2021/08/13 10:44:06;;;;;;;8.45;3.55;;;;;;;25.89;38.51;100434.17;1719198;81;21734;-80
2021/08/13 10:47:19;;;;;;;9.83;4.42;;;;;;;25.95;38.98;100459.69;1747417;80;21803;-80
2021/08/13 10:50:26;;;;;;;10.85;3.90;;;;;;;25.99;39.17;100440.36;1741496;80;21920;-81
2021/08/13 10:53:43;;;;;;;7.45;4.03;;;;;;;26.05;39.22;100444.86;1697647;83;21306;-80
2021/08/13 10:56:53;;;;;;;8.73;3.52;;;;;;;26.12;39.22;100453.86;1700157;84;21335;-81
2021/08/13 11:00:02;;;;;;;13.60;3.80;;;;;;;26.19;39.21;100462.84;1737875;81;21240;-81
2021/08/13 11:03:26;;;;;;;7.47;3.72;;;;;;;26.22;39.08;100459.49;1741261;81;21291;-81
2021/08/13 11:06:49;;;;;;;11.43;4.15;;;;;;;26.21;38.23;100450.80;1686257;83;21299;-82
2021/08/13 11:09:54;;;;;;;8.50;4.25;;;;;;;26.14;38.11;100454.42;1746792;81;21293;-80
2021/08/13 11:13:25;;;;;;;9.58;3.83;;;;;;;26.08;38.94;100472.34;1738151;81;21291;-81
2021/08/13 11:16:37;;;;;;;7.55;3.70;;;;;;;26.08;38.75;100464.50;1745720;81;21765;-82
2021/08/13 11:20:05;;;;;;;10.55;4.53;;;;;;;26.02;38.71;100452.97;1748893;81;21803;-81
2021/08/13 11:23:12;;;;;;;5.42;3.20;;;;;;;26.04;39.30;100457.20;1736204;81;21295;-82
2021/08/13 11:26:17;;;;;;;6.97;3.67;;;;;;;26.07;39.65;100458.05;1745193;81;21322;-82
2021/08/13 11:29:45;;;;;;;8.50;4.22;;;;;;;26.04;40.30;100478.22;1740568;81;21203;-82
2021/08/13 11:32:51;;;;;;;12.25;4.50;;;;;;;25.98;40.65;100462.51;1739923;81;21199;-81
2021/08/13 11:35:58;;;;;;;9.98;4.67;;;;;;;26.04;40.08;100454.95;1741107;81;21711;-82
2021/08/13 11:39:05;;;;;;;12.03;4.35;;;;;;;26.08;40.11;100466.74;1702225;83;21486;-83
2021/08/13 11:42:14;;;;;;;14.53;4.08;;;;;;;26.09;39.87;100448.80;1739031;81;21196;-83
2021/08/13 11:45:20;;;;;;;11.83;4.20;;;;;;;26.11;40.15;100456.39;1742979;81;21215;-82
2021/08/13 11:48:25;;;;;;;14.58;4.83;;;;;;;26.15;40.09;100449.09;1749519;81;21711;-81
2021/08/13 11:51:33;;;;;;;8.40;4.30;;;;;;;26.16;40.22;100449.39;1753839;80;21779;-82
2021/08/13 11:54:40;;;;;;;24.92;4.60;;;;;;;26.11;40.61;100449.38;1769193;80;21256;-82
2021/08/13 11:57:46;;;;;;;11.93;4.60;;;;;;;26.08;39.56;100451.33;1763922;80;21347;-82
2021/08/13 12:00:53;;;;;;;16.23;4.60;;;;;;;26.03;39.61;100454.12;1750334;80;21181;-81
2021/08/13 12:03:59;;;;;;;8.38;4.33;;;;;;;25.99;40.08;100458.58;1760308;80;21215;-81
2021/08/13 12:07:18;;;;;;;11.33;4.42;;;;;;;26.04;39.83;100462.80;1770530;80;21709;-82
2021/08/13 12:10:24;;;;;;;9.75;3.60;;;;;;;26.02;39.42;100456.64;1760170;80;21375;-82
2021/08/13 12:13:30;;;;;;;21.70;4.08;;;;;;;26.04;39.14;100453.55;1760182;80;21180;-82
2021/08/13 12:16:36;;;;;;;6.10;4.00;;;;;;;26.11;39.37;100461.13;1759537;80;21219;-81
2021/08/13 12:19:43;;;;;;;5.90;3.65;;;;;;;26.14;39.64;100461.98;1757144;80;21266;-82
2021/08/13 12:22:49;;;;;;;12.58;3.98;;;;;;;26.12;38.37;100458.06;1772936;80;21788;-82
2021/08/13 12:25:56;;;;;;;11.83;4.30;;;;;;;26.09;38.43;100456.38;1756082;80;21342;-81
2021/08/13 12:29:01;;;;;;;9.18;3.75;;;;;;;26.11;37.88;100454.99;1763873;80;21200;-83
2021/08/13 12:32:09;;;;;;;7.40;3.80;;;;;;;26.13;38.73;100458.91;1764764;80;21342;-82
2021/08/13 12:35:15;;;;;;;16.90;4.15;;;;;;;26.17;39.32;100450.23;1758236;80;21843;-81
2021/08/13 12:38:21;;;;;;;6.42;4.20;;;;;;;26.14;38.72;100454.98;1758345;80;21374;-82
2021/08/13 12:41:27;;;;;;;11.68;4.10;;;;;;;26.10;38.49;100449.64;1754133;80;21212;-80
2021/08/13 12:44:33;;;;;;;10.15;4.15;;;;;;;26.05;38.32;100442.62;1714402;82;21291;-81
2021/08/13 12:47:40;;;;;;;6.15;3.47;;;;;;;25.99;38.48;100447.37;1750523;80;21112;-80
2021/08/13 12:50:45;;;;;;;7.22;3.72;;;;;;;25.91;38.98;100447.89;1765534;80;21161;-80
2021/08/13 12:53:53;;;;;;;10.90;4.03;;;;;;;25.93;39.08;100445.68;1741531;80;21914;-79
2021/08/13 12:57:11;;;;;;;13.85;4.58;;;;;;;25.90;38.79;100443.42;1760914;81;21957;-81
2021/08/13 13:00:15;;;;;;;12.70;4.80;;;;;;;25.87;38.80;100438.34;1742783;81;21342;-79
2021/08/13 13:03:24;;;;;;;13.30;4.65;;;;;;;25.85;39.28;100433.03;1665921;84;21196;-81
2021/08/13 13:06:32;;;;;;;7.65;4.35;;;;;;;25.94;39.25;100444.55;1734544;81;21874;-81
2021/08/13 13:09:43;;;;;;;8.75;4.70;;;;;;;25.93;39.04;100446.52;1733409;81;21354;-82
2021/08/13 13:12:46;;;;;;;9.58;4.72;;;;;;;25.86;38.94;100447.32;1690412;85;21260;-80
2021/08/13 13:15:52;;;;;;;8.58;4.37;;;;;;;25.79;38.45;100443.95;1727252;81;21891;-81
2021/08/13 13:18:58;;;;;;;8.10;4.37;;;;;;;25.74;38.57;100452.30;1739962;81;21169;-81
2021/08/13 13:21:57;;;;;;;7.35;4.05;;;;;;;25.70;38.61;100442.75;1743616;81;21330;-80
2021/08/13 13:25:19;;;;;;;7.35;4.62;;;;;;;25.66;37.78;100442.45;1724230;81;21331;-81
2021/08/13 13:28:38;;;;;;;13.03;5.03;;;;;;;25.62;37.98;100437.66;1744602;81;21279;-83
2021/08/13 13:32:01;;;;;;;13.80;5.72;;;;;;;25.57;38.11;100437.64;1745036;81;21291;-83
2021/08/13 13:35:11;;;;;;;8.15;4.97;;;;;;;25.52;38.07;100434.81;1721392;82;21200;-81
2021/08/13 13:38:20;;;;;;;15.28;5.10;;;;;;;25.48;37.99;100442.91;1733116;81;21353;-82
2021/08/13 13:41:27;;;;;;;11.80;5.37;;;;;;;25.44;37.66;100440.37;1701510;81;21715;-80
2021/08/13 13:44:34;;;;;;;11.83;5.67;;;;;;;25.38;38.02;100439.50;1695719;84;21308;-82
2021/08/13 13:47:39;;;;;;;12.50;6.20;;;;;;;25.35;38.03;100445.63;1696580;84;21296;-82
2021/08/13 13:50:48;;;;;;;15.43;7.25;;;;;;;25.38;38.33;100440.06;1725669;83;21297;-82
2021/08/13 13:53:54;;;;;;;13.32;7.05;;;;;;;25.38;38.45;100439.50;1735510;82;21877;-82
2021/08/13 13:57:00;;;;;;;14.98;6.90;;;;;;;25.33;38.67;100435.84;1749098;82;21318;-81
2021/08/13 14:00:05;;;;;;;13.08;6.37;;;;;;;25.28;39.02;100435.25;1791222;78;21309;-82
2021/08/13 14:03:14;;;;;;;10.03;5.85;;;;;;;25.18;38.77;100442.19;1791640;80;21284;-82
2021/08/13 14:06:20;;;;;;;9.20;4.97;;;;;;;25.09;39.13;100432.61;1718252;83;21570;-82
2021/08/13 14:09:26;;;;;;;11.25;6.03;;;;;;;25.04;39.22;100436.19;1717481;83;21370;-82
2021/08/13 14:12:31;;;;;;;11.38;4.95;;;;;;;25.00;38.49;100429.44;1717948;83;21418;-82
2021/08/13 14:15:43;;;;;;;10.20;5.12;;;;;;;25.02;38.87;100429.99;1717517;83;21819;-80
2021/08/13 14:18:49;;;;;;;10.88;5.72;;;;;;;25.12;39.07;100437.65;1718166;83;22497;-82
2021/08/13 14:21:55;;;;;;;20.32;5.67;;;;;;;25.20;38.91;100418.40;1717928;82;21216;-82
2021/08/13 14:25:01;;;;;;;13.85;5.40;;;;;;;25.30;39.29;100429.37;1718610;83;21205;-82
2021/08/13 14:28:07;;;;;;;7.83;4.70;;;;;;;25.38;39.41;100427.47;1719491;83;21338;-82